Time;durP1;ratioP1;P1;durP2;ratioP2;P2;SDS_P1;SDS_P2;PMS_P1;PMS_P2;Temp;Humidity;BMP_temperature;BMP_pressure;BME280_temperature;BME280_humidity;BME280_pressure;Samples;Min_cycle;Max_cycle;Signal;HPM_P1;HPM_P2
2022/06/18 00:00:25;;;;;;;3.75;1.77;;;19.10;81.60;;;;;;5053634;28;20224;-60
2022/06/18 00:02:51;;;;;;;3.20;1.70;;;19.10;82.40;;;;;;5054470;28;20310;-60
2022/06/18 00:05:18;;;;;;;2.00;1.70;;;19.10;82.80;;;;;;5054186;28;20280;-60
2022/06/18 00:07:50;;;;;;;1.80;1.65;;;19.00;83.20;;;;;;5054524;28;20173;-61
2022/06/18 00:10:19;;;;;;;1.92;1.80;;;18.90;84.20;;;;;;5054686;28;20600;-59
2022/06/18 00:15:33;;;;;;;1.67;1.58;;;18.80;85.10;;;;;;5054938;28;20203;-59
2022/06/18 00:17:59;;;;;;;3.03;1.67;;;18.70;85.60;;;;;;5053924;28;20196;-60
2022/06/18 00:20:28;;;;;;;1.60;1.50;;;18.70;85.70;;;;;;5054419;28;20287;-60
2022/06/18 00:22:58;;;;;;;2.75;1.60;;;18.70;86.30;;;;;;5058819;28;20182;-60
2022/06/18 00:25:32;;;;;;;2.42;1.85;;;18.70;86.70;;;;;;5054248;28;20208;-59
2022/06/18 00:27:58;;;;;;;1.92;1.65;;;18.70;87.20;;;;;;5054229;28;20262;-60
2022/06/18 00:30:25;;;;;;;3.65;1.50;;;18.70;87.90;;;;;;5053470;28;20244;-60
2022/06/18 00:32:51;;;;;;;1.73;1.60;;;18.70;88.90;;;;;;5053778;28;20192;-60
2022/06/18 00:35:17;;;;;;;2.47;1.60;;;18.70;89.60;;;;;;5054205;28;20165;-60
2022/06/18 00:37:43;;;;;;;1.83;1.67;;;18.60;90.10;;;;;;5053668;28;20188;-60
2022/06/18 00:40:12;;;;;;;1.73;1.50;;;18.60;90.10;;;;;;5052674;28;20264;-59
2022/06/18 00:42:40;;;;;;;1.83;1.67;;;18.60;90.60;;;;;;5053641;28;20659;-60
2022/06/18 00:45:06;;;;;;;4.30;1.65;;;18.60;90.80;;;;;;5053434;28;20193;-60
2022/06/18 00:47:52;;;;;;;1.70;1.60;;;18.60;91.00;;;;;;5053214;28;20196;-60
2022/06/18 00:50:33;;;;;;;3.50;1.70;;;18.60;91.30;;;;;;5053474;28;20640;-60
2022/06/18 00:53:21;;;;;;;2.22;1.73;;;18.50;91.80;;;;;;5053570;28;20655;-60
2022/06/18 00:55:54;;;;;;;2.58;1.70;;;18.50;92.10;;;;;;5053470;28;20180;-60
2022/06/18 00:58:34;;;;;;;2.92;1.70;;;18.50;92.40;;;;;;5052974;28;20216;-60
2022/06/18 01:01:01;;;;;;;1.98;1.88;;;18.50;92.60;;;;;;5053608;28;20173;-60
2022/06/18 01:03:34;;;;;;;1.85;1.75;;;18.50;92.90;;;;;;5053082;28;20644;-60
2022/06/18 01:06:03;;;;;;;1.60;1.50;;;18.50;93.10;;;;;;5053398;28;20256;-60
2022/06/18 01:08:32;;;;;;;2.00;1.58;;;18.50;93.30;;;;;;5037315;28;20175;-60
2022/06/18 01:11:01;;;;;;;2.03;1.80;;;18.40;93.50;;;;;;5037824;28;20205;-60
2022/06/18 01:13:34;;;;;;;1.77;1.67;;;18.50;93.80;;;;;;5053004;28;20174;-60
2022/06/18 01:16:01;;;;;;;1.95;1.85;;;18.40;93.70;;;;;;5052897;28;20260;-60
2022/06/18 01:18:28;;;;;;;2.40;1.50;;;18.40;94.00;;;;;;5052963;28;20201;-60
2022/06/18 01:21:29;;;;;;;1.95;1.80;;;18.30;94.40;;;;;;5052953;28;20181;-60
2022/06/18 01:24:15;;;;;;;3.05;1.70;;;18.30;94.70;;;;;;5053110;28;20173;-60
2022/06/18 01:26:43;;;;;;;3.00;1.70;;;18.30;95.10;;;;;;5052264;28;20258;-60
2022/06/18 01:29:09;;;;;;;2.17;1.70;;;18.30;95.10;;;;;;5052915;28;20193;-60
2022/06/18 01:31:34;;;;;;;1.90;1.80;;;18.30;95.20;;;;;;5052760;28;20750;-60
2022/06/18 01:34:01;;;;;;;2.58;1.80;;;18.20;95.40;;;;;;5052436;28;20185;-60
2022/06/18 01:36:31;;;;;;;2.10;1.70;;;18.20;95.50;;;;;;5052776;28;20263;-60
2022/06/18 01:38:57;;;;;;;2.05;1.63;;;18.20;95.80;;;;;;5052838;28;20182;-60
2022/06/18 01:41:49;;;;;;;2.00;1.80;;;18.20;96.20;;;;;;5052732;28;20169;-60
2022/06/18 01:44:31;;;;;;;3.42;1.77;;;18.10;96.40;;;;;;5052484;28;20177;-60
2022/06/18 01:47:02;;;;;;;3.50;1.73;;;18.10;96.70;;;;;;5052521;28;20576;-60
2022/06/18 01:49:34;;;;;;;2.10;2.00;;;18.10;96.90;;;;;;5051703;28;20228;-60
2022/06/18 01:52:02;;;;;;;1.85;1.70;;;18.10;97.10;;;;;;5052500;28;20224;-60
2022/06/18 01:54:33;;;;;;;3.53;1.73;;;18.10;97.20;;;;;;5052788;28;20659;-60
2022/06/18 01:57:03;;;;;;;3.50;1.90;;;18.10;97.30;;;;;;5052004;28;20247;-60
2022/06/18 01:59:33;;;;;;;2.10;2.00;;;18.10;97.40;;;;;;5051968;28;20644;-60
2022/06/18 02:02:00;;;;;;;2.92;1.70;;;18.00;97.40;;;;;;5052444;28;20260;-60
2022/06/18 02:04:27;;;;;;;2.08;1.88;;;18.00;97.50;;;;;;5052238;28;20628;-60
2022/06/18 02:06:53;;;;;;;1.80;1.70;;;18.00;97.60;;;;;;5052148;28;20189;-60
2022/06/18 02:09:51;;;;;;;3.33;2.10;;;17.90;97.90;;;;;;5052410;28;20235;-60
2022/06/18 02:12:20;;;;;;;2.50;1.80;;;17.90;98.00;;;;;;5051681;28;20221;-60
2022/06/18 02:14:51;;;;;;;2.25;2.00;;;17.90;98.20;;;;;;5052320;28;20174;-60
2022/06/18 02:17:18;;;;;;;1.73;1.63;;;17.90;98.20;;;;;;5051952;28;20204;-60
2022/06/18 02:20:07;;;;;;;4.47;1.95;;;17.80;98.40;;;;;;5051828;28;20257;-60
2022/06/18 02:22:37;;;;;;;2.05;1.85;;;17.70;98.70;;;;;;5051939;28;20644;-60
2022/06/18 02:25:04;;;;;;;2.13;1.92;;;17.70;99.00;;;;;;5051530;28;20181;-60
2022/06/18 02:27:29;;;;;;;3.58;2.17;;;17.60;99.30;;;;;;5051936;28;20230;-60
2022/06/18 02:29:55;;;;;;;2.97;1.85;;;17.50;99.40;;;;;;5052062;28;20196;-60
2022/06/18 02:32:34;;;;;;;2.30;2.03;;;17.60;99.70;;;;;;5051592;28;20565;-60
2022/06/18 02:35:00;;;;;;;3.20;1.95;;;17.50;99.90;;;;;;5031986;28;20182;-60
2022/06/18 02:37:28;;;;;;;2.13;2.00;;;17.50;99.90;;;;;;5036971;28;20701;-60
2022/06/18 02:40:01;;;;;;;2.15;1.90;;;17.50;99.90;;;;;;5051780;28;20644;-60
2022/06/18 02:42:36;;;;;;;4.00;2.63;;;17.40;99.90;;;;;;5051746;28;20181;-60
2022/06/18 02:45:05;;;;;;;2.20;2.03;;;17.40;99.90;;;;;;5051729;28;20213;-60
2022/06/18 02:47:30;;;;;;;2.28;1.73;;;17.40;99.90;;;;;;5051380;28;20671;-60
2022/06/18 02:50:07;;;;;;;2.08;1.88;;;17.30;99.90;;;;;;5051574;28;20181;-60
2022/06/18 02:52:52;;;;;;;2.40;2.05;;;17.30;99.90;;;;;;5051833;28;20221;-60
2022/06/18 02:55:30;;;;;;;2.47;1.80;;;17.30;99.90;;;;;;5051813;28;20676;-60
2022/06/18 02:58:11;;;;;;;2.30;2.10;;;17.30;99.90;;;;;;5050743;28;20186;-60
2022/06/18 03:00:39;;;;;;;2.05;1.92;;;17.30;99.90;;;;;;5051675;28;20636;-60
2022/06/18 03:03:07;;;;;;;2.35;2.15;;;17.20;99.90;;;;;;5051404;28;20674;-60
2022/06/18 03:05:33;;;;;;;2.22;2.10;;;17.20;99.90;;;;;;5051784;28;20180;-60
2022/06/18 03:07:58;;;;;;;2.00;1.88;;;17.20;99.90;;;;;;5051471;28;20200;-60
2022/06/18 03:13:08;;;;;;;3.25;2.42;;;17.20;99.90;;;;;;5051605;28;20257;-60
2022/06/18 03:15:34;;;;;;;3.05;2.30;;;17.20;99.90;;;;;;5051883;28;20595;-60
2022/06/18 03:18:00;;;;;;;2.42;2.22;;;17.20;99.90;;;;;;5051237;28;20186;-60
2022/06/18 03:20:37;;;;;;;2.65;2.30;;;17.20;99.90;;;;;;5051570;28;20232;-60
2022/06/18 03:23:05;;;;;;;2.30;2.10;;;17.20;99.90;;;;;;5050090;28;20667;-60
2022/06/18 03:25:30;;;;;;;4.20;2.30;;;17.10;99.90;;;;;;5051043;28;20201;-61
2022/06/18 03:27:56;;;;;;;2.50;2.13;;;17.20;99.90;;;;;;5050979;28;20174;-60
2022/06/18 03:30:21;;;;;;;3.08;2.50;;;17.20;99.90;;;;;;5051224;28;20181;-60
2022/06/18 03:32:47;;;;;;;2.40;2.20;;;17.10;99.90;;;;;;5051276;28;20498;-60
2022/06/18 03:35:12;;;;;;;2.10;1.90;;;17.00;99.90;;;;;;5052724;28;20537;-60
2022/06/18 03:37:38;;;;;;;2.88;2.42;;;17.00;99.90;;;;;;5055095;28;20213;-60
2022/06/18 03:40:03;;;;;;;2.67;2.20;;;17.00;99.90;;;;;;5054107;28;20542;-60
2022/06/18 03:42:29;;;;;;;3.70;2.25;;;17.00;99.90;;;;;;5055101;28;20165;-60
2022/06/18 03:44:54;;;;;;;2.88;2.03;;;17.00;99.90;;;;;;5054681;28;20188;-60
2022/06/18 03:47:20;;;;;;;3.47;1.98;;;17.10;99.90;;;;;;5054871;28;20181;-60
2022/06/18 03:49:47;;;;;;;4.22;2.10;;;17.10;99.90;;;;;;5054625;28;20185;-60
2022/06/18 03:52:12;;;;;;;3.08;1.95;;;17.20;99.90;;;;;;5054601;28;20558;-60
2022/06/18 03:54:38;;;;;;;2.25;2.05;;;17.30;99.90;;;;;;5054662;28;20178;-60
2022/06/18 03:57:04;;;;;;;2.33;2.00;;;17.30;99.90;;;;;;5054373;28;20177;-60
2022/06/18 03:59:29;;;;;;;1.92;1.80;;;17.40;99.90;;;;;;5054124;28;20194;-60
2022/06/18 04:01:55;;;;;;;2.50;1.90;;;17.50;99.90;;;;;;5054142;28;20192;-60
2022/06/18 04:04:20;;;;;;;2.35;2.15;;;17.50;99.90;;;;;;5054245;28;20253;-60
2022/06/18 04:06:46;;;;;;;2.10;2.00;;;17.60;99.90;;;;;;5054669;28;20185;-60
2022/06/18 04:09:11;;;;;;;2.72;2.10;;;17.70;99.90;;;;;;5054117;28;20259;-60
2022/06/18 04:11:38;;;;;;;2.20;2.00;;;17.70;99.90;;;;;;5054476;28;20228;-60
2022/06/18 04:14:04;;;;;;;3.00;2.17;;;17.80;99.90;;;;;;5053968;28;20178;-60
2022/06/18 04:16:30;;;;;;;2.42;2.00;;;17.90;99.90;;;;;;5054572;28;20207;-60
2022/06/18 04:18:55;;;;;;;5.35;2.35;;;18.10;99.90;;;;;;5053353;28;20688;-59
2022/06/18 04:21:21;;;;;;;3.35;2.30;;;18.20;99.90;;;;;;5054278;28;20260;-59
2022/06/18 04:23:47;;;;;;;2.30;2.10;;;18.30;99.90;;;;;;5053952;28;20215;-59
2022/06/18 04:26:13;;;;;;;3.65;1.98;;;18.40;99.90;;;;;;5053553;28;20216;-59
2022/06/18 04:28:39;;;;;;;2.38;2.00;;;18.60;99.90;;;;;;5054132;28;20193;-59
2022/06/18 04:31:05;;;;;;;2.33;1.90;;;18.80;99.90;;;;;;5054445;28;20224;-59
2022/06/18 04:33:31;;;;;;;2.42;2.22;;;18.90;99.70;;;;;;5053864;28;20205;-59
2022/06/18 04:35:58;;;;;;;3.53;2.08;;;19.20;99.40;;;;;;5054086;28;20278;-59
2022/06/18 04:38:25;;;;;;;3.03;2.53;;;19.40;99.00;;;;;;5053901;28;20177;-59
2022/06/18 04:40:51;;;;;;;4.40;2.95;;;19.60;98.70;;;;;;5053711;28;20217;-59
2022/06/18 04:43:17;;;;;;;2.72;2.42;;;19.80;98.20;;;;;;5053069;28;20197;-59
2022/06/18 04:45:43;;;;;;;2.50;2.30;;;20.00;97.80;;;;;;5053816;28;20181;-59
2022/06/18 04:48:09;;;;;;;2.40;2.20;;;20.20;97.30;;;;;;5053322;28;20274;-59
2022/06/18 04:50:38;;;;;;;2.72;2.53;;;20.50;96.90;;;;;;5053730;28;20549;-59
2022/06/18 04:53:05;;;;;;;2.55;2.05;;;20.80;96.20;;;;;;5053334;28;20193;-59
2022/06/18 04:55:31;;;;;;;2.35;2.15;;;21.10;95.60;;;;;;5053216;28;20197;-59
2022/06/18 04:57:57;;;;;;;3.08;2.17;;;21.40;94.80;;;;;;5053275;28;20184;-59
2022/06/18 05:00:23;;;;;;;2.67;1.88;;;21.80;94.30;;;;;;5053760;28;20267;-59
2022/06/18 05:02:48;;;;;;;2.60;2.13;;;22.00;93.70;;;;;;5053165;28;20178;-59
2022/06/18 05:05:20;;;;;;;4.82;2.03;;;22.40;93.00;;;;;;5052636;28;20235;-59
2022/06/18 05:07:46;;;;;;;2.47;2.28;;;22.70;92.20;;;;;;5052683;28;20173;-59
2022/06/18 05:10:12;;;;;;;4.90;2.70;;;23.00;91.20;;;;;;5055041;28;20188;-59
2022/06/18 05:12:38;;;;;;;2.42;2.22;;;23.30;90.80;;;;;;5065542;28;20267;-59
2022/06/18 05:15:05;;;;;;;2.47;1.85;;;23.70;90.10;;;;;;5054331;28;20177;-59
2022/06/18 05:17:33;;;;;;;2.22;1.83;;;24.00;89.50;;;;;;5053102;28;20189;-60
2022/06/18 05:19:59;;;;;;;2.03;1.90;;;24.40;87.80;;;;;;5052493;28;20225;-60
2022/06/18 05:22:24;;;;;;;2.70;1.95;;;24.70;86.70;;;;;;5053348;28;20660;-59
2022/06/18 05:24:50;;;;;;;2.80;2.17;;;25.10;85.20;;;;;;5052948;28;20648;-59
2022/06/18 05:27:32;;;;;;;3.70;2.22;;;25.40;83.90;;;;;;5053266;28;20169;-58
2022/06/18 05:29:57;;;;;;;4.55;2.00;;;25.80;81.30;;;;;;5052709;28;20173;-59
2022/06/18 05:32:23;;;;;;;2.80;2.22;;;26.10;80.10;;;;;;5052260;28;20228;-60
2022/06/18 05:34:49;;;;;;;5.20;2.28;;;26.50;79.70;;;;;;5052571;28;20536;-60
2022/06/18 05:37:17;;;;;;;3.38;2.20;;;26.70;78.80;;;;;;5052803;28;20213;-60
2022/06/18 05:39:43;;;;;;;3.90;2.17;;;27.00;76.50;;;;;;5052491;28;20648;-60
2022/06/18 05:42:09;;;;;;;2.65;2.00;;;27.30;75.60;;;;;;5049774;28;20189;-60
2022/06/18 05:44:36;;;;;;;5.22;2.35;;;27.60;74.00;;;;;;5052596;28;20201;-60
2022/06/18 05:47:11;;;;;;;4.57;2.28;;;27.90;72.80;;;;;;5052570;28;20251;-60
2022/06/18 05:49:37;;;;;;;3.65;2.28;;;28.30;72.10;;;;;;5050932;28;20187;-60
2022/06/18 05:52:03;;;;;;;2.10;2.00;;;28.60;71.30;;;;;;5055552;28;20671;-60
2022/06/18 05:54:28;;;;;;;3.22;2.20;;;28.90;70.30;;;;;;5050274;28;20183;-60
2022/06/18 05:56:54;;;;;;;4.20;2.35;;;29.10;69.50;;;;;;5056533;28;20213;-60
2022/06/18 05:59:19;;;;;;;2.28;1.90;;;29.50;68.30;;;;;;5055611;28;20184;-61
2022/06/18 06:01:45;;;;;;;1.95;1.77;;;29.90;67.00;;;;;;5052117;28;20185;-62
2022/06/18 06:04:11;;;;;;;3.85;1.98;;;30.30;64.90;;;;;;5052438;28;20706;-60
2022/06/18 06:06:36;;;;;;;2.33;1.88;;;30.50;64.40;;;;;;5052236;28;20192;-60
2022/06/18 06:09:03;;;;;;;2.28;1.90;;;30.80;62.10;;;;;;5052326;28;20197;-61
2022/06/18 06:11:32;;;;;;;4.10;2.30;;;31.10;61.00;;;;;;5052191;28;20247;-61
2022/06/18 06:13:59;;;;;;;4.28;2.00;;;31.40;60.00;;;;;;5052286;28;20227;-61
2022/06/18 06:16:26;;;;;;;3.08;2.20;;;31.70;59.20;;;;;;5052383;28;20590;-61
2022/06/18 06:18:52;;;;;;;2.25;1.95;;;32.00;58.50;;;;;;5051629;28;20225;-61
2022/06/18 06:21:18;;;;;;;1.98;1.88;;;32.30;57.60;;;;;;5052033;28;20641;-60
2022/06/18 06:23:44;;;;;;;1.98;1.88;;;32.60;56.80;;;;;;5051554;28;20658;-61
2022/06/18 06:26:23;;;;;;;3.47;1.92;;;32.90;56.40;;;;;;5052041;28;20260;-60
2022/06/18 06:28:48;;;;;;;4.53;2.17;;;33.20;55.20;;;;;;5051728;28;20517;-61
2022/06/18 06:31:15;;;;;;;2.28;1.70;;;33.60;54.20;;;;;;5052017;28;20208;-61
2022/06/18 06:33:40;;;;;;;3.97;1.90;;;33.90;53.70;;;;;;5051632;28;20196;-62
2022/06/18 06:36:06;;;;;;;2.35;1.58;;;34.20;52.80;;;;;;5051419;28;20654;-61
2022/06/18 06:38:32;;;;;;;2.20;2.00;;;34.50;52.60;;;;;;5052055;28;20181;-62
2022/06/18 06:40:59;;;;;;;2.35;1.80;;;34.80;52.30;;;;;;5051328;28;20548;-61
2022/06/18 06:43:24;;;;;;;2.05;1.88;;;35.10;51.80;;;;;;5051747;28;20185;-62
2022/06/18 06:45:50;;;;;;;2.33;1.88;;;35.30;51.40;;;;;;5051438;28;20238;-61
2022/06/18 06:48:15;;;;;;;1.67;1.58;;;35.60;50.80;;;;;;5051640;28;20177;-61
2022/06/18 06:50:41;;;;;;;2.55;1.50;;;35.80;50.00;;;;;;5051454;28;20204;-62
2022/06/18 06:53:07;;;;;;;2.70;1.90;;;36.10;48.50;;;;;;5051447;28;20190;-61
2022/06/18 06:58:20;;;;;;;3.90;2.45;;;36.60;48.20;;;;;;5057900;28;20639;-62
2022/06/18 07:00:49;;;;;;;2.50;1.92;;;36.80;48.10;;;;;;5051814;28;20181;-62
2022/06/18 07:03:18;;;;;;;2.50;1.70;;;37.00;47.30;;;;;;5051544;28;20188;-62
2022/06/18 07:05:44;;;;;;;1.88;1.67;;;37.10;47.40;;;;;;5050288;28;20180;-62
2022/06/18 07:08:10;;;;;;;1.67;1.58;;;37.00;46.70;;;;;;5051458;28;20181;-62
2022/06/18 07:10:36;;;;;;;1.95;1.85;;;37.10;46.90;;;;;;5054096;28;20185;-62
2022/06/18 07:13:02;;;;;;;3.75;2.15;;;37.20;46.30;;;;;;5054693;28;20259;-62
2022/06/18 07:15:28;;;;;;;12.02;6.72;;;37.40;45.90;;;;;;5053558;28;20177;-62
2022/06/18 07:17:54;;;;;;;8.85;4.45;;;37.60;45.60;;;;;;5054963;28;20185;-62
2022/06/18 07:20:21;;;;;;;5.32;3.75;;;37.80;45.00;;;;;;5055551;28;20223;-62
2022/06/18 07:22:46;;;;;;;2.30;2.10;;;38.00;44.90;;;;;;5055338;28;20216;-62
2022/06/18 07:25:14;;;;;;;2.28;1.88;;;38.20;43.40;;;;;;5055230;28;20200;-62
2022/06/18 07:27:40;;;;;;;1.83;1.70;;;38.50;42.70;;;;;;5055263;28;20180;-62
2022/06/18 07:30:08;;;;;;;3.80;2.40;;;38.80;42.60;;;;;;5055085;28;20239;-62
2022/06/18 07:32:44;;;;;;;2.88;1.83;;;39.00;42.10;;;;;;5054739;28;20270;-62
2022/06/18 07:35:16;;;;;;;2.15;1.80;;;39.10;42.40;;;;;;5055057;28;20207;-62
2022/06/18 07:37:42;;;;;;;2.33;1.73;;;39.20;41.20;;;;;;5055136;28;20208;-62
2022/06/18 07:40:08;;;;;;;4.13;1.88;;;39.30;42.50;;;;;;5054841;28;20635;-62
2022/06/18 07:42:35;;;;;;;2.03;1.75;;;39.30;42.40;;;;;;5053892;28;20191;-62
2022/06/18 07:45:00;;;;;;;2.63;2.40;;;39.10;41.40;;;;;;5055042;28;20181;-62
2022/06/18 07:47:26;;;;;;;3.08;2.70;;;39.10;42.00;;;;;;5054445;28;20184;-62
2022/06/18 07:49:51;;;;;;;4.15;2.80;;;39.20;40.90;;;;;;5054771;28;20176;-62
2022/06/18 07:52:17;;;;;;;4.30;2.60;;;39.20;40.70;;;;;;5054703;28;20216;-62
2022/06/18 07:54:43;;;;;;;2.35;2.00;;;39.20;40.60;;;;;;5054298;28;20188;-62
2022/06/18 07:57:09;;;;;;;2.97;2.10;;;39.20;40.00;;;;;;5054128;28;20192;-62
2022/06/18 07:59:35;;;;;;;4.10;2.40;;;39.20;40.10;;;;;;5054180;28;20177;-62
2022/06/18 08:02:01;;;;;;;3.72;1.98;;;39.20;40.80;;;;;;5053174;28;20185;-62
2022/06/18 08:04:29;;;;;;;3.78;1.65;;;39.20;39.90;;;;;;5054383;28;20239;-60
2022/06/18 08:06:55;;;;;;;2.80;2.00;;;39.00;40.90;;;;;;5050539;28;20258;-60
2022/06/18 08:09:20;;;;;;;4.93;2.50;;;39.10;40.50;;;;;;5054716;28;20224;-61
2022/06/18 08:11:46;;;;;;;3.20;1.83;;;39.30;41.30;;;;;;5054509;28;20609;-61
2022/06/18 08:14:12;;;;;;;2.38;1.83;;;39.20;40.00;;;;;;5053381;28;20173;-62
2022/06/18 08:16:38;;;;;;;2.00;1.73;;;39.10;40.40;;;;;;5054494;28;20181;-60
2022/06/18 08:19:04;;;;;;;1.95;1.60;;;38.80;40.30;;;;;;5053939;28;20220;-62
2022/06/18 08:21:40;;;;;;;1.70;1.60;;;38.60;40.30;;;;;;5052331;28;20181;-61
2022/06/18 08:24:10;;;;;;;1.60;1.50;;;38.50;40.60;;;;;;5054192;28;20730;-61
2022/06/18 08:26:38;;;;;;;1.80;1.70;;;38.50;39.90;;;;;;5054277;28;20197;-61
2022/06/18 08:29:06;;;;;;;1.63;1.50;;;38.20;39.10;;;;;;5053569;28;20575;-61
2022/06/18 08:31:32;;;;;;;1.95;1.85;;;38.20;39.60;;;;;;5053402;28;20223;-61
2022/06/18 08:33:58;;;;;;;3.95;1.67;;;38.00;39.10;;;;;;5054168;28;20181;-61
2022/06/18 08:36:25;;;;;;;1.80;1.52;;;37.80;39.80;;;;;;5053743;28;20223;-61
2022/06/18 08:38:51;;;;;;;3.08;1.63;;;37.70;40.50;;;;;;5053863;28;20177;-61
2022/06/18 08:42:06;;;;;;;3.38;1.70;;;37.80;40.50;;;;;;5053333;28;20260;-61
2022/06/18 08:44:47;;;;;;;5.32;1.63;;;38.10;41.10;;;;;;5041269;28;20197;-61
2022/06/18 08:47:28;;;;;;;1.60;1.48;;;38.40;39.80;;;;;;5053118;28;20193;-61
2022/06/18 08:50:28;;;;;;;1.83;1.45;;;38.50;38.00;;;;;;5053828;28;20177;-59
2022/06/18 08:53:11;;;;;;;1.70;1.60;;;38.30;37.00;;;;;;5044329;28;20303;-61
2022/06/18 08:56:05;;;;;;;2.53;1.70;;;38.00;38.00;;;;;;5052596;28;20177;-61
2022/06/18 08:59:01;;;;;;;1.75;1.58;;;37.90;37.90;;;;;;5046161;28;20192;-61
2022/06/18 09:01:32;;;;;;;3.60;1.45;;;37.80;37.70;;;;;;5053561;28;20187;-61
2022/06/18 09:04:18;;;;;;;1.45;1.35;;;37.70;37.90;;;;;;5052983;28;20184;-61
2022/06/18 09:06:51;;;;;;;1.80;1.70;;;37.70;38.00;;;;;;5043177;28;20584;-61
2022/06/18 09:09:35;;;;;;;1.70;1.60;;;38.00;39.20;;;;;;5053325;28;20176;-61
2022/06/18 09:12:22;;;;;;;1.70;1.60;;;37.70;37.80;;;;;;5052957;28;20212;-61
2022/06/18 09:15:17;;;;;;;2.47;1.50;;;37.70;39.80;;;;;;5052996;28;20207;-61
2022/06/18 09:17:51;;;;;;;2.35;1.60;;;37.60;38.20;;;;;;5052846;28;20193;-61
2022/06/18 09:20:25;;;;;;;6.10;4.47;;;37.40;39.40;;;;;;5052339;28;20704;-61
2022/06/18 09:22:58;;;;;;;2.30;2.10;;;37.40;38.60;;;;;;5052541;28;20275;-61
2022/06/18 09:25:31;;;;;;;3.67;1.77;;;37.40;39.40;;;;;;5033122;28;20645;-61
2022/06/18 09:28:03;;;;;;;3.95;1.52;;;37.50;38.80;;;;;;5052148;28;20187;-61
2022/06/18 09:30:37;;;;;;;3.03;1.50;;;37.20;38.60;;;;;;5052333;28;20207;-62
2022/06/18 09:33:10;;;;;;;1.95;1.48;;;37.00;38.30;;;;;;5052603;28;20188;-61
2022/06/18 09:35:55;;;;;;;1.30;1.30;;;36.90;39.30;;;;;;5052853;28;20623;-61
2022/06/18 09:38:38;;;;;;;1.50;1.40;;;37.10;38.70;;;;;;5052626;28;20396;-61
2022/06/18 09:41:08;;;;;;;1.83;1.23;;;37.30;37.50;;;;;;5052438;28;20176;-61
2022/06/18 09:43:45;;;;;;;36.88;4.85;;;37.60;38.50;;;;;;5052339;28;20181;-60
2022/06/18 09:46:31;;;;;;;2.15;1.40;;;37.80;38.30;;;;;;5052485;28;20267;-61
2022/06/18 09:48:57;;;;;;;1.35;1.20;;;38.00;36.70;;;;;;5034232;28;20212;-61
2022/06/18 09:51:31;;;;;;;2.50;1.30;;;38.20;37.00;;;;;;5052068;28;20240;-61
2022/06/18 09:54:06;;;;;;;1.83;1.25;;;38.30;36.90;;;;;;5052653;28;20177;-61
2022/06/18 09:56:38;;;;;;;1.67;1.30;;;38.20;37.20;;;;;;5052830;28;20172;-61
2022/06/18 09:59:13;;;;;;;2.42;1.42;;;38.30;38.20;;;;;;5051986;28;20272;-61
2022/06/18 10:01:46;;;;;;;2.80;1.60;;;38.50;37.90;;;;;;5051835;28;20283;-60
2022/06/18 10:07:26;;;;;;;1.60;1.50;;;38.60;38.60;;;;;;5048113;28;20264;-61
2022/06/18 10:10:21;;;;;;;1.73;1.63;;;38.70;38.00;;;;;;5052334;28;20181;-62
2022/06/18 10:12:53;;;;;;;1.70;1.30;;;38.70;37.00;;;;;;5050962;28;20311;-60
2022/06/18 10:15:20;;;;;;;2.25;1.42;;;38.60;37.70;;;;;;5051871;28;20222;-61
2022/06/18 10:18:16;;;;;;;2.10;1.50;;;38.40;38.20;;;;;;5051966;28;20195;-60
2022/06/18 10:21:20;;;;;;;1.48;1.38;;;38.20;38.80;;;;;;5051809;28;20195;-61
2022/06/18 10:23:54;;;;;;;1.63;1.52;;;38.10;39.90;;;;;;5049486;28;20196;-61
2022/06/18 10:26:54;;;;;;;4.45;1.90;;;38.20;40.70;;;;;;5049945;28;20691;-61
2022/06/18 10:29:39;;;;;;;1.83;1.73;;;38.20;41.50;;;;;;5013853;28;20196;-61
2022/06/18 10:32:52;;;;;;;1.60;1.50;;;38.20;41.40;;;;;;5051874;28;20564;-61
2022/06/18 10:35:48;;;;;;;1.35;1.25;;;38.50;41.10;;;;;;5030071;28;20264;-60
2022/06/18 10:38:39;;;;;;;2.20;1.50;;;38.40;39.70;;;;;;5028568;28;20200;-61
2022/06/18 10:41:10;;;;;;;1.33;1.13;;;38.40;40.10;;;;;;5046093;28;20189;-61
2022/06/18 10:43:54;;;;;;;1.40;1.00;;;38.40;35.90;;;;;;5052001;28;20192;-62
2022/06/18 10:46:22;;;;;;;2.53;1.20;;;38.50;35.70;;;;;;5051693;28;20188;-61
2022/06/18 10:48:52;;;;;;;1.00;1.00;;;38.60;35.50;;;;;;5051747;28;20172;-62
2022/06/18 10:51:21;;;;;;;1.33;1.10;;;38.30;34.40;;;;;;5051813;28;20211;-62
2022/06/18 10:53:53;;;;;;;2.20;1.08;;;37.90;34.10;;;;;;5051900;28;20203;-62
2022/06/18 10:56:23;;;;;;;1.65;0.95;;;37.80;34.30;;;;;;5032212;28;20174;-62
2022/06/18 10:59:00;;;;;;;1.95;0.90;;;37.90;34.80;;;;;;5031995;28;20181;-61
2022/06/18 11:01:39;;;;;;;1.52;1.20;;;38.10;33.00;;;;;;5051395;28;20550;-62
2022/06/18 11:04:31;;;;;;;3.30;1.15;;;38.50;31.80;;;;;;5051415;28;20180;-62
2022/06/18 11:07:03;;;;;;;1.10;1.00;;;38.70;32.40;;;;;;5051439;28;20212;-60
2022/06/18 11:09:44;;;;;;;2.13;1.10;;;38.80;32.80;;;;;;5051573;28;20184;-60
2022/06/18 11:12:27;;;;;;;1.15;1.10;;;38.80;33.80;;;;;;5051649;28;20247;-61
2022/06/18 11:14:52;;;;;;;1.30;1.20;;;39.10;33.60;;;;;;5050257;28;20181;-60
2022/06/18 11:17:30;;;;;;;1.45;1.20;;;39.20;33.80;;;;;;5051781;28;20662;-60
2022/06/18 11:20:19;;;;;;;1.52;0.90;;;39.20;32.60;;;;;;5051516;28;20228;-61
2022/06/18 11:22:54;;;;;;;2.80;1.17;;;39.30;33.60;;;;;;5051343;28;20181;-60
2022/06/18 11:25:26;;;;;;;3.47;1.25;;;39.40;33.60;;;;;;5051696;28;20173;-60
2022/06/18 11:27:59;;;;;;;1.40;1.20;;;39.40;33.00;;;;;;5050098;28;20552;-60
2022/06/18 11:30:33;;;;;;;1.75;0.90;;;39.60;32.70;;;;;;5051129;28;20663;-61
2022/06/18 11:33:01;;;;;;;1.77;1.00;;;39.90;32.00;;;;;;5051529;28;20733;-58
2022/06/18 11:35:32;;;;;;;1.20;1.10;;;39.90;31.70;;;;;;5051145;28;20173;-58
2022/06/18 11:38:16;;;;;;;3.65;1.13;;;39.90;30.70;;;;;;5051510;28;20181;-58
2022/06/18 11:40:52;;;;;;;5.10;1.27;;;39.60;31.70;;;;;;5051191;28;20223;-58
2022/06/18 11:43:36;;;;;;;2.97;1.30;;;39.60;32.20;;;;;;5051475;28;20207;-58
2022/06/18 11:46:08;;;;;;;1.50;1.10;;;39.40;31.30;;;;;;5051102;28;20207;-58
2022/06/18 11:48:40;;;;;;;2.97;1.05;;;39.10;32.10;;;;;;5051398;28;20560;-58
2022/06/18 11:51:27;;;;;;;5.90;1.10;;;39.20;31.60;;;;;;5051008;28;20747;-58
2022/06/18 11:54:05;;;;;;;3.40;1.38;;;39.40;30.20;;;;;;5051026;28;20283;-60
2022/06/18 11:56:30;;;;;;;4.43;1.58;;;39.40;31.00;;;;;;5051399;28;20560;-61
2022/06/18 11:59:10;;;;;;;6.65;1.30;;;39.40;31.50;;;;;;5053606;28;20222;-60
2022/06/18 12:01:51;;;;;;;2.10;1.30;;;39.60;30.80;;;;;;5054540;28;20584;-59
2022/06/18 12:04:41;;;;;;;2.35;1.00;;;39.90;31.60;;;;;;5054596;28;20636;-59
2022/06/18 12:07:17;;;;;;;2.17;1.42;;;39.90;32.20;;;;;;5054201;28;20372;-60
2022/06/18 12:09:43;;;;;;;2.92;1.38;;;39.60;30.00;;;;;;5054419;28;20650;-57
2022/06/18 12:12:26;;;;;;;3.92;1.25;;;39.30;31.60;;;;;;5054242;28;20224;-58
2022/06/18 12:15:24;;;;;;;3.28;1.30;;;39.10;32.20;;;;;;5052435;28;20200;-57
2022/06/18 12:18:01;;;;;;;3.78;1.27;;;39.20;32.00;;;;;;5065488;28;20651;-58
2022/06/18 12:20:53;;;;;;;1.75;1.30;;;39.30;32.00;;;;;;5054059;28;20236;-58
2022/06/18 12:23:34;;;;;;;2.83;1.33;;;39.40;32.60;;;;;;5054442;28;20314;-58
2022/06/18 12:26:27;;;;;;;2.97;1.30;;;39.30;31.70;;;;;;5054296;28;20164;-60
2022/06/18 12:29:14;;;;;;;4.88;1.40;;;39.20;31.40;;;;;;5054155;28;20169;-61
2022/06/18 12:32:17;;;;;;;5.47;1.10;;;39.00;31.00;;;;;;5054459;28;20208;-58
2022/06/18 12:34:54;;;;;;;7.80;1.60;;;38.90;32.10;;;;;;5041820;28;20238;-57
2022/06/18 12:37:30;;;;;;;5.60;1.35;;;38.90;31.70;;;;;;5054127;28;20187;-57
2022/06/18 12:40:05;;;;;;;5.60;2.67;;;38.80;32.20;;;;;;5053829;28;20169;-58
2022/06/18 12:42:41;;;;;;;4.10;1.70;;;38.70;31.60;;;;;;5054216;28;20183;-57
2022/06/18 12:45:10;;;;;;;3.95;1.45;;;38.60;31.30;;;;;;5053911;28;20234;-57
2022/06/18 12:47:57;;;;;;;5.03;1.90;;;38.60;31.20;;;;;;5068993;28;20190;-57
2022/06/18 12:50:54;;;;;;;7.30;1.60;;;38.70;32.40;;;;;;5073991;28;20234;-58
2022/06/18 12:53:34;;;;;;;5.40;1.60;;;39.00;31.90;;;;;;5065388;28;20193;-58
2022/06/18 12:56:22;;;;;;;3.08;1.50;;;39.20;31.30;;;;;;5053967;28;20318;-57
2022/06/18 12:59:00;;;;;;;2.55;1.20;;;39.40;31.60;;;;;;5053370;28;20285;-57
2022/06/18 13:01:51;;;;;;;4.70;1.90;;;39.40;31.70;;;;;;5053334;28;20177;-57
2022/06/18 13:04:35;;;;;;;4.63;2.10;;;39.30;31.60;;;;;;5053682;28;20260;-57
2022/06/18 13:07:26;;;;;;;5.05;1.75;;;39.10;33.20;;;;;;5052415;28;20177;-57
2022/06/18 13:10:24;;;;;;;3.95;1.70;;;39.10;32.90;;;;;;5050189;28;20223;-57
2022/06/18 13:13:18;;;;;;;4.03;2.00;;;39.20;32.80;;;;;;5051311;28;20256;-57
2022/06/18 13:16:11;;;;;;;4.85;2.03;;;39.10;33.30;;;;;;5053531;28;20184;-57
2022/06/18 13:18:52;;;;;;;4.45;1.90;;;39.00;33.30;;;;;;5053139;28;20239;-57
2022/06/18 13:21:18;;;;;;;6.18;1.83;;;39.00;34.60;;;;;;5053333;28;20180;-57
2022/06/18 13:30:17;;;;;;;4.30;2.22;;;39.10;33.80;;;;;;5040766;28;20492;-57
2022/06/18 13:32:51;;;;;;;6.82;2.85;;;39.00;34.30;;;;;;5053063;28;20296;-57